sensor_id;sensor_type;location;lat;lon;timestamp;pressure;altitude;pressure_sealevel;temperature;humidity
51452;BME280;37521;52.020;-1.740;2023-02-13T00:01:09;101781.50;;;3.94;100.00
51452;BME280;37521;52.020;-1.740;2023-02-13T00:03:37;101783.28;;;3.95;100.00
51452;BME280;37521;52.020;-1.740;2023-02-13T00:06:05;101785.03;;;3.95;100.00
51452;BME280;37521;52.020;-1.740;2023-02-13T00:08:34;101780.69;;;3.97;100.00
51452;BME280;37521;52.020;-1.740;2023-02-13T00:11:02;101780.69;;;3.97;100.00
51452;BME280;37521;52.020;-1.740;2023-02-13T00:13:33;101780.69;;;3.95;100.00
51452;BME280;37521;52.020;-1.740;2023-02-13T00:16:03;101783.31;;;3.97;100.00
51452;BME280;37521;52.020;-1.740;2023-02-13T00:18:33;101774.56;;;3.95;100.00
51452;BME280;37521;52.020;-1.740;2023-02-13T00:21:04;101776.28;;;3.94;100.00
51452;BME280;37521;52.020;-1.740;2023-02-13T00:23:33;101775.41;;;3.94;100.00
51452;BME280;37521;52.020;-1.740;2023-02-13T00:26:05;101769.31;;;3.92;100.00
51452;BME280;37521;52.020;-1.740;2023-02-13T00:28:35;101768.44;;;3.91;100.00
51452;BME280;37521;52.020;-1.740;2023-02-13T00:31:05;101765.84;;;3.94;100.00
51452;BME280;37521;52.020;-1.740;2023-02-13T00:33:34;101769.34;;;3.95;100.00
51452;BME280;37521;52.020;-1.740;2023-02-13T00:36:06;101768.44;;;3.94;100.00
51452;BME280;37521;52.020;-1.740;2023-02-13T00:38:35;101768.44;;;3.94;100.00
51452;BME280;37521;52.020;-1.740;2023-02-13T00:41:04;101775.41;;;3.94;100.00
51452;BME280;37521;52.020;-1.740;2023-02-13T00:43:34;101772.78;;;3.94;100.00
51452;BME280;37521;52.020;-1.740;2023-02-13T00:46:03;101777.16;;;3.93;100.00
51452;BME280;37521;52.020;-1.740;2023-02-13T00:48:33;101774.53;;;3.93;100.00
51452;BME280;37521;52.020;-1.740;2023-02-13T00:51:02;101770.19;;;3.92;100.00
51452;BME280;37521;52.020;-1.740;2023-02-13T00:53:31;101770.16;;;3.91;100.00
51452;BME280;37521;52.020;-1.740;2023-02-13T00:55:59;101765.81;;;3.93;100.00
51452;BME280;37521;52.020;-1.740;2023-02-13T00:58:28;101762.34;;;3.94;100.00
51452;BME280;37521;52.020;-1.740;2023-02-13T01:00:59;101764.94;;;3.92;100.00
51452;BME280;37521;52.020;-1.740;2023-02-13T01:03:27;101766.69;;;3.92;100.00
51452;BME280;37521;52.020;-1.740;2023-02-13T01:05:56;101759.72;;;3.92;100.00
51452;BME280;37521;52.020;-1.740;2023-02-13T01:08:24;101757.09;;;3.91;100.00
51452;BME280;37521;52.020;-1.740;2023-02-13T01:10:55;101755.38;;;3.90;100.00
51452;BME280;37521;52.020;-1.740;2023-02-13T01:13:24;101759.72;;;3.89;100.00
51452;BME280;37521;52.020;-1.740;2023-02-13T01:15:52;101753.63;;;3.92;100.00
51452;BME280;37521;52.020;-1.740;2023-02-13T01:18:22;101751.00;;;3.92;100.00
51452;BME280;37521;52.020;-1.740;2023-02-13T01:20:56;101744.03;;;3.91;100.00
51452;BME280;37521;52.020;-1.740;2023-02-13T01:23:29;101740.56;;;3.92;100.00
51452;BME280;37521;52.020;-1.740;2023-02-13T01:25:57;101739.69;;;3.90;100.00
51452;BME280;37521;52.020;-1.740;2023-02-13T01:28:26;101742.28;;;3.88;100.00
51452;BME280;37521;52.020;-1.740;2023-02-13T01:30:55;101741.38;;;3.88;100.00
51452;BME280;37521;52.020;-1.740;2023-02-13T01:33:26;101746.66;;;3.91;100.00
51452;BME280;37521;52.020;-1.740;2023-02-13T01:35:55;101745.78;;;3.89;100.00
51452;BME280;37521;52.020;-1.740;2023-02-13T01:38:24;101742.31;;;3.91;100.00
51452;BME280;37521;52.020;-1.740;2023-02-13T01:40:53;101748.41;;;3.92;100.00
51452;BME280;37521;52.020;-1.740;2023-02-13T01:43:22;101746.66;;;3.91;100.00
51452;BME280;37521;52.020;-1.740;2023-02-13T01:45:55;101748.38;;;3.89;100.00
51452;BME280;37521;52.020;-1.740;2023-02-13T01:48:26;101741.38;;;3.88;100.00
51452;BME280;37521;52.020;-1.740;2023-02-13T01:51:01;101748.38;;;3.89;100.00
51452;BME280;37521;52.020;-1.740;2023-02-13T01:53:32;101746.59;;;3.88;100.00
51452;BME280;37521;52.020;-1.740;2023-02-13T01:56:08;101750.97;;;3.87;100.00
51452;BME280;37521;52.020;-1.740;2023-02-13T01:58:40;101748.34;;;3.86;100.00
51452;BME280;37521;52.020;-1.740;2023-02-13T02:01:11;101748.34;;;3.86;100.00
51452;BME280;37521;52.020;-1.740;2023-02-13T02:03:44;101745.72;;;3.86;100.00
51452;BME280;37521;52.020;-1.740;2023-02-13T02:06:18;101754.44;;;3.86;100.00
51452;BME280;37521;52.020;-1.740;2023-02-13T02:08:50;101746.59;;;3.85;100.00
51452;BME280;37521;52.020;-1.740;2023-02-13T02:11:26;101747.47;;;3.85;100.00
51452;BME280;37521;52.020;-1.740;2023-02-13T02:13:58;101747.47;;;3.85;100.00
51452;BME280;37521;52.020;-1.740;2023-02-13T02:16:31;101736.16;;;3.85;100.00
51452;BME280;37521;52.020;-1.740;2023-02-13T02:19:11;101739.63;;;3.83;100.00
51452;BME280;37521;52.020;-1.740;2023-02-13T02:21:56;101738.75;;;3.81;100.00
51452;BME280;37521;52.020;-1.740;2023-02-13T02:27:49;101730.88;;;3.80;100.00
51452;BME280;37521;52.020;-1.740;2023-02-13T02:30:45;101724.75;;;3.76;100.00
51452;BME280;37521;52.020;-1.740;2023-02-13T02:33:26;101718.66;;;3.76;100.00
51452;BME280;37521;52.020;-1.740;2023-02-13T02:36:09;101719.53;;;3.75;100.00
51452;BME280;37521;52.020;-1.740;2023-02-13T02:38:56;101723.00;;;3.77;100.00
51452;BME280;37521;52.020;-1.740;2023-02-13T02:41:31;101716.06;;;3.77;100.00
51452;BME280;37521;52.020;-1.740;2023-02-13T02:44:25;101722.16;;;3.76;100.00
51452;BME280;37521;52.020;-1.740;2023-02-13T02:47:08;101721.22;;;3.74;100.00
51452;BME280;37521;52.020;-1.740;2023-02-13T02:50:07;101724.75;;;3.75;100.00
51452;BME280;37521;52.020;-1.740;2023-02-13T02:52:44;101722.13;;;3.75;100.00
51452;BME280;37521;52.020;-1.740;2023-02-13T02:55:22;101716.88;;;3.73;100.00
51452;BME280;37521;52.020;-1.740;2023-02-13T02:57:58;101719.50;;;3.73;100.00
51452;BME280;37521;52.020;-1.740;2023-02-13T03:01:06;101718.59;;;3.71;100.00
51452;BME280;37521;52.020;-1.740;2023-02-13T03:03:55;101717.75;;;3.72;100.00
51452;BME280;37521;52.020;-1.740;2023-02-13T03:06:47;101711.63;;;3.70;100.00
51452;BME280;37521;52.020;-1.740;2023-02-13T03:09:21;101716.84;;;3.70;100.00
51452;BME280;37521;52.020;-1.740;2023-02-13T03:12:05;101713.38;;;3.68;100.00
51452;BME280;37521;52.020;-1.740;2023-02-13T03:14:52;101711.59;;;3.67;100.00
51452;BME280;37521;52.020;-1.740;2023-02-13T03:17:20;101710.72;;;3.67;100.00
51452;BME280;37521;52.020;-1.740;2023-02-13T03:20:14;101708.09;;;3.65;100.00
51452;BME280;37521;52.020;-1.740;2023-02-13T03:23:11;101709.84;;;3.66;100.00
51452;BME280;37521;52.020;-1.740;2023-02-13T03:25:56;101708.09;;;3.67;100.00
51452;BME280;37521;52.020;-1.740;2023-02-13T03:28:32;101702.88;;;3.65;100.00
51452;BME280;37521;52.020;-1.740;2023-02-13T03:31:27;101702.88;;;3.65;100.00
51452;BME280;37521;52.020;-1.740;2023-02-13T03:34:03;101706.34;;;3.64;100.00
51452;BME280;37521;52.020;-1.740;2023-02-13T03:36:39;101700.25;;;3.64;100.00
51452;BME280;37521;52.020;-1.740;2023-02-13T03:39:37;101700.25;;;3.64;100.00
51452;BME280;37521;52.020;-1.740;2023-02-13T03:42:17;101702.88;;;3.62;100.00
51452;BME280;37521;52.020;-1.740;2023-02-13T03:44:53;101699.34;;;3.60;100.00
51452;BME280;37521;52.020;-1.740;2023-02-13T03:47:38;101698.50;;;3.61;100.00
51452;BME280;37521;52.020;-1.740;2023-02-13T03:50:08;101697.59;;;3.59;100.00
51452;BME280;37521;52.020;-1.740;2023-02-13T03:52:42;101708.91;;;3.60;100.00
51452;BME280;37521;52.020;-1.740;2023-02-13T03:55:17;101696.72;;;3.59;100.00
51452;BME280;37521;52.020;-1.740;2023-02-13T03:58:08;101702.81;;;3.56;100.00
51452;BME280;37521;52.020;-1.740;2023-02-13T04:00:58;101709.78;;;3.57;100.00
51452;BME280;37521;52.020;-1.740;2023-02-13T04:03:36;101695.84;;;3.55;100.00
51452;BME280;37521;52.020;-1.740;2023-02-13T04:06:10;101687.97;;;3.53;100.00
51452;BME280;37521;52.020;-1.740;2023-02-13T04:08:42;101701.94;;;3.55;100.00
51452;BME280;37521;52.020;-1.740;2023-02-13T04:11:17;101695.78;;;3.52;100.00
51452;BME280;37521;52.020;-1.740;2023-02-13T04:13:52;101700.13;;;3.51;100.00
51452;BME280;37521;52.020;-1.740;2023-02-13T04:16:29;101692.31;;;3.51;100.00
51452;BME280;37521;52.020;-1.740;2023-02-13T04:19:01;101690.56;;;3.49;100.00
51452;BME280;37521;52.020;-1.740;2023-02-13T04:21:31;101687.06;;;3.48;100.00
51452;BME280;37521;52.020;-1.740;2023-02-13T04:24:01;101692.28;;;3.48;100.00
51452;BME280;37521;52.020;-1.740;2023-02-13T04:26:34;101696.63;;;3.48;100.00
51452;BME280;37521;52.020;-1.740;2023-02-13T04:29:06;101689.63;;;3.47;100.00
51452;BME280;37521;52.020;-1.740;2023-02-13T04:31:37;101694.84;;;3.45;100.00
51452;BME280;37521;52.020;-1.740;2023-02-13T04:34:07;101688.75;;;3.45;100.00
51452;BME280;37521;52.020;-1.740;2023-02-13T04:36:37;101690.50;;;3.46;100.00
51452;BME280;37521;52.020;-1.740;2023-02-13T04:39:07;101691.38;;;3.45;100.00
51452;BME280;37521;52.020;-1.740;2023-02-13T04:41:38;101686.19;;;3.48;100.00
51452;BME280;37521;52.020;-1.740;2023-02-13T04:44:07;101694.03;;;3.51;100.00
51452;BME280;37521;52.020;-1.740;2023-02-13T04:46:38;101687.94;;;3.49;100.00
51452;BME280;37521;52.020;-1.740;2023-02-13T04:49:09;101683.53;;;3.46;100.00
51452;BME280;37521;52.020;-1.740;2023-02-13T04:51:39;101688.75;;;3.45;100.00
51452;BME280;37521;52.020;-1.740;2023-02-13T04:54:09;101684.38;;;3.42;100.00
51452;BME280;37521;52.020;-1.740;2023-02-13T04:56:39;101694.84;;;3.44;100.00
51452;BME280;37521;52.020;-1.740;2023-02-13T04:59:09;101691.38;;;3.45;100.00
51452;BME280;37521;52.020;-1.740;2023-02-13T05:01:39;101699.22;;;3.46;100.00
51452;BME280;37521;52.020;-1.740;2023-02-13T05:04:08;101693.13;;;3.46;100.00
51452;BME280;37521;52.020;-1.740;2023-02-13T05:06:42;101703.56;;;3.44;100.00
51452;BME280;37521;52.020;-1.740;2023-02-13T05:09:12;101695.72;;;3.43;100.00
51452;BME280;37521;52.020;-1.740;2023-02-13T05:11:42;101685.22;;;3.40;100.00
51452;BME280;37521;52.020;-1.740;2023-02-13T05:14:11;101687.81;;;3.38;100.00
51452;BME280;37521;52.020;-1.740;2023-02-13T05:16:41;101682.59;;;3.37;100.00
51452;BME280;37521;52.020;-1.740;2023-02-13T05:19:12;101682.59;;;3.35;100.00
51452;BME280;37521;52.020;-1.740;2023-02-13T05:21:42;101683.47;;;3.36;100.00
51452;BME280;37521;52.020;-1.740;2023-02-13T05:24:28;101691.28;;;3.37;100.00
51452;BME280;37521;52.020;-1.740;2023-02-13T05:26:59;101675.63;;;3.39;100.00
51452;BME280;37521;52.020;-1.740;2023-02-13T05:29:28;101680.00;;;3.40;100.00
51452;BME280;37521;52.020;-1.740;2023-02-13T05:31:59;101673.91;;;3.38;100.00
51452;BME280;37521;52.020;-1.740;2023-02-13T05:34:29;101674.75;;;3.35;100.00
51452;BME280;37521;52.020;-1.740;2023-02-13T05:36:59;101674.72;;;3.34;100.00
51452;BME280;37521;52.020;-1.740;2023-02-13T05:39:28;101670.34;;;3.31;100.00
51452;BME280;37521;52.020;-1.740;2023-02-13T05:41:57;101672.94;;;3.30;100.00
51452;BME280;37521;52.020;-1.740;2023-02-13T05:44:27;101670.34;;;3.30;100.00
51452;BME280;37521;52.020;-1.740;2023-02-13T05:46:57;101671.19;;;3.28;100.00
51452;BME280;37521;52.020;-1.740;2023-02-13T05:49:25;101676.44;;;3.28;100.00
51452;BME280;37521;52.020;-1.740;2023-02-13T05:51:56;101668.53;;;3.25;100.00
51452;BME280;37521;52.020;-1.740;2023-02-13T05:54:26;101665.94;;;3.24;100.00
51452;BME280;37521;52.020;-1.740;2023-02-13T05:56:56;101666.78;;;3.21;100.00
51452;BME280;37521;52.020;-1.740;2023-02-13T05:59:25;101670.22;;;3.20;100.00
51452;BME280;37521;52.020;-1.740;2023-02-13T06:01:56;101669.41;;;3.21;100.00
51452;BME280;37521;52.020;-1.740;2023-02-13T06:04:25;101672.84;;;3.20;100.00
51452;BME280;37521;52.020;-1.740;2023-02-13T06:06:55;101671.97;;;3.20;100.00
51452;BME280;37521;52.020;-1.740;2023-02-13T06:09:23;101674.56;;;3.18;100.00
51452;BME280;37521;52.020;-1.740;2023-02-13T06:11:54;101674.56;;;3.18;100.00
51452;BME280;37521;52.020;-1.740;2023-02-13T06:14:24;101688.47;;;3.17;100.00
51452;BME280;37521;52.020;-1.740;2023-02-13T06:16:55;101698.94;;;3.19;100.00
51452;BME280;37521;52.020;-1.740;2023-02-13T06:19:24;101702.41;;;3.19;100.00
51452;BME280;37521;52.020;-1.740;2023-02-13T06:21:54;101698.09;;;3.21;100.00
51452;BME280;37521;52.020;-1.740;2023-02-13T06:24:24;101689.41;;;3.22;100.00
51452;BME280;37521;52.020;-1.740;2023-02-13T06:26:54;101692.84;;;3.18;100.00
51452;BME280;37521;52.020;-1.740;2023-02-13T06:29:23;101682.38;;;3.15;100.00
51452;BME280;37521;52.020;-1.740;2023-02-13T06:31:53;101684.94;;;3.12;100.00
51452;BME280;37521;52.020;-1.740;2023-02-13T06:34:25;101685.78;;;3.11;100.00
51452;BME280;37521;52.020;-1.740;2023-02-13T06:36:55;101681.44;;;3.10;100.00
51452;BME280;37521;52.020;-1.740;2023-02-13T06:39:23;101677.97;;;3.11;100.00
51452;BME280;37521;52.020;-1.740;2023-02-13T06:41:52;101683.22;;;3.14;100.00
51452;BME280;37521;52.020;-1.740;2023-02-13T06:44:21;101664.06;;;3.12;100.00
51452;BME280;37521;52.020;-1.740;2023-02-13T06:46:50;101665.78;;;3.10;100.00
51452;BME280;37521;52.020;-1.740;2023-02-13T06:49:19;101664.91;;;3.08;100.00
51452;BME280;37521;52.020;-1.740;2023-02-13T06:51:49;101664.00;;;3.06;100.00
51452;BME280;37521;52.020;-1.740;2023-02-13T06:54:19;101666.59;;;3.05;100.00
51452;BME280;37521;52.020;-1.740;2023-02-13T06:57:03;101665.69;;;3.01;100.00
51452;BME280;37521;52.020;-1.740;2023-02-13T06:59:33;101668.31;;;3.01;100.00
51452;BME280;37521;52.020;-1.740;2023-02-13T07:02:02;101668.25;;;2.98;100.00
51452;BME280;37521;52.020;-1.740;2023-02-13T07:04:33;101669.09;;;2.95;100.00
51452;BME280;37521;52.020;-1.740;2023-02-13T07:07:05;101673.44;;;2.95;100.00
51452;BME280;37521;52.020;-1.740;2023-02-13T07:09:34;101676.06;;;2.95;100.00
51452;BME280;37521;52.020;-1.740;2023-02-13T07:12:05;101676.00;;;2.93;100.00
51452;BME280;37521;52.020;-1.740;2023-02-13T07:14:34;101673.38;;;2.90;100.00
51452;BME280;37521;52.020;-1.740;2023-02-13T07:17:03;101681.19;;;2.89;100.00
51452;BME280;37521;52.020;-1.740;2023-02-13T07:19:32;101680.34;;;2.90;100.00
51452;BME280;37521;52.020;-1.740;2023-02-13T07:22:02;101684.69;;;2.91;100.00
51452;BME280;37521;52.020;-1.740;2023-02-13T07:24:32;101688.16;;;2.90;100.00
51452;BME280;37521;52.020;-1.740;2023-02-13T07:27:01;101686.41;;;2.89;100.00
51452;BME280;37521;52.020;-1.740;2023-02-13T07:29:30;101676.84;;;2.88;100.00
51452;BME280;37521;52.020;-1.740;2023-02-13T07:32:01;101672.47;;;2.87;100.00
51452;BME280;37521;52.020;-1.740;2023-02-13T07:34:31;101682.03;;;2.86;100.00
51452;BME280;37521;52.020;-1.740;2023-02-13T07:37:01;101689.84;;;2.86;100.00
51452;BME280;37521;52.020;-1.740;2023-02-13T07:39:29;101684.66;;;2.88;100.00
51452;BME280;37521;52.020;-1.740;2023-02-13T07:42:01;101682.03;;;2.86;100.00
51452;BME280;37521;52.020;-1.740;2023-02-13T07:44:31;101679.41;;;2.85;100.00
51452;BME280;37521;52.020;-1.740;2023-02-13T07:47:00;101675.94;;;2.86;100.00
51452;BME280;37521;52.020;-1.740;2023-02-13T07:49:30;101683.72;;;2.83;100.00
51452;BME280;37521;52.020;-1.740;2023-02-13T07:52:00;101682.81;;;2.81;100.00
51452;BME280;37521;52.020;-1.740;2023-02-13T07:54:30;101679.34;;;2.80;100.00
51452;BME280;37521;52.020;-1.740;2023-02-13T07:56:58;101687.16;;;2.79;100.00
51452;BME280;37521;52.020;-1.740;2023-02-13T07:59:28;101684.53;;;2.79;100.00
51452;BME280;37521;52.020;-1.740;2023-02-13T08:01:56;101680.19;;;2.76;100.00
51452;BME280;37521;52.020;-1.740;2023-02-13T08:04:24;101675.81;;;2.75;100.00
51452;BME280;37521;52.020;-1.740;2023-02-13T08:06:52;101677.50;;;2.73;100.00
51452;BME280;37521;52.020;-1.740;2023-02-13T08:09:21;101674.03;;;2.72;100.00
51452;BME280;37521;52.020;-1.740;2023-02-13T08:12:07;101674.91;;;2.73;100.00
51452;BME280;37521;52.020;-1.740;2023-02-13T08:14:38;101683.59;;;2.72;100.00
51452;BME280;37521;52.020;-1.740;2023-02-13T08:17:08;101689.69;;;2.74;100.00
51452;BME280;37521;52.020;-1.740;2023-02-13T08:19:37;101689.69;;;2.72;100.00
51452;BME280;37521;52.020;-1.740;2023-02-13T08:22:05;101682.69;;;2.68;100.00
51452;BME280;37521;52.020;-1.740;2023-02-13T08:24:33;101675.66;;;2.64;100.00
51452;BME280;37521;52.020;-1.740;2023-02-13T08:27:01;101686.09;;;2.64;100.00
51452;BME280;37521;52.020;-1.740;2023-02-13T08:29:30;101686.09;;;2.64;100.00
51452;BME280;37521;52.020;-1.740;2023-02-13T08:31:59;101681.75;;;2.65;100.00
51452;BME280;37521;52.020;-1.740;2023-02-13T08:34:28;101677.47;;;2.68;100.00
51452;BME280;37521;52.020;-1.740;2023-02-13T08:36:56;101687.03;;;2.69;100.00
51452;BME280;37521;52.020;-1.740;2023-02-13T08:39:24;101674.00;;;2.69;100.00
51452;BME280;37521;52.020;-1.740;2023-02-13T08:41:52;101680.97;;;2.72;100.00
51452;BME280;37521;52.020;-1.740;2023-02-13T08:44:21;101678.38;;;2.72;100.00
51452;BME280;37521;52.020;-1.740;2023-02-13T08:46:49;101684.53;;;2.76;100.00
51452;BME280;37521;52.020;-1.740;2023-02-13T08:49:18;101677.56;;;2.76;100.00
51452;BME280;37521;52.020;-1.740;2023-02-13T08:51:46;101677.56;;;2.78;100.00
51452;BME280;37521;52.020;-1.740;2023-02-13T08:54:15;101683.66;;;2.78;100.00
51452;BME280;37521;52.020;-1.740;2023-02-13T08:56:43;101687.22;;;2.82;100.00
51452;BME280;37521;52.020;-1.740;2023-02-13T08:59:11;101675.91;;;2.84;100.00
51452;BME280;37521;52.020;-1.740;2023-02-13T09:01:40;101674.19;;;2.85;100.00
51452;BME280;37521;52.020;-1.740;2023-02-13T09:04:08;101672.53;;;2.93;100.00
51452;BME280;37521;52.020;-1.740;2023-02-13T09:06:38;101665.69;;;3.01;100.00
51452;BME280;37521;52.020;-1.740;2023-02-13T09:09:06;101662.25;;;3.05;100.00
51452;BME280;37521;52.020;-1.740;2023-02-13T09:11:35;101664.94;;;3.13;100.00
51452;BME280;37521;52.020;-1.740;2023-02-13T09:14:03;101658.91;;;3.17;100.00
51452;BME280;37521;52.020;-1.740;2023-02-13T09:16:31;101664.13;;;3.18;100.00
51452;BME280;37521;52.020;-1.740;2023-02-13T09:19:00;101660.72;;;3.25;100.00
51452;BME280;37521;52.020;-1.740;2023-02-13T09:21:28;101658.19;;;3.33;100.00
51452;BME280;37521;52.020;-1.740;2023-02-13T09:23:58;101655.63;;;3.41;100.00
51452;BME280;37521;52.020;-1.740;2023-02-13T09:26:26;101659.16;;;3.43;100.00
51452;BME280;37521;52.020;-1.740;2023-02-13T09:28:54;101659.22;;;3.52;100.00
51452;BME280;37521;52.020;-1.740;2023-02-13T09:31:23;101651.50;;;3.61;100.00
51452;BME280;37521;52.020;-1.740;2023-02-13T09:33:55;101650.63;;;3.65;100.00
51452;BME280;37521;52.020;-1.740;2023-02-13T09:36:23;101652.31;;;3.60;100.00
51452;BME280;37521;52.020;-1.740;2023-02-13T09:38:53;101654.97;;;3.62;100.00
51452;BME280;37521;52.020;-1.740;2023-02-13T09:41:41;101655.84;;;3.62;100.00
51452;BME280;37521;52.020;-1.740;2023-02-13T09:44:13;101647.25;;;3.75;100.00
51452;BME280;37521;52.020;-1.740;2023-02-13T09:47:03;101654.38;;;3.98;100.00
51452;BME280;37521;52.020;-1.740;2023-02-13T09:49:35;101655.34;;;4.12;100.00
51452;BME280;37521;52.020;-1.740;2023-02-13T09:52:08;101655.28;;;4.06;100.00
51452;BME280;37521;52.020;-1.740;2023-02-13T09:54:36;101650.94;;;4.05;100.00
51452;BME280;37521;52.020;-1.740;2023-02-13T09:57:14;101655.28;;;4.04;100.00
51452;BME280;37521;52.020;-1.740;2023-02-13T09:59:51;101645.75;;;4.11;100.00
51452;BME280;37521;52.020;-1.740;2023-02-13T10:02:31;101652.75;;;4.15;100.00
51452;BME280;37521;52.020;-1.740;2023-02-13T10:05:15;101652.78;;;4.21;100.00
51452;BME280;37521;52.020;-1.740;2023-02-13T10:07:54;101656.28;;;4.23;100.00
51452;BME280;37521;52.020;-1.740;2023-02-13T10:10:31;101648.38;;;4.13;100.00
51452;BME280;37521;52.020;-1.740;2023-02-13T10:13:15;101644.00;;;4.10;100.00
51452;BME280;37521;52.020;-1.740;2023-02-13T10:15:54;101645.81;;;4.23;100.00
51452;BME280;37521;52.020;-1.740;2023-02-13T10:18:39;101647.72;;;4.52;100.00
51452;BME280;37521;52.020;-1.740;2023-02-13T10:21:10;101642.53;;;4.67;100.00
51452;BME280;37521;52.020;-1.740;2023-02-13T10:23:41;101655.56;;;4.50;100.00
51452;BME280;37521;52.020;-1.740;2023-02-13T10:26:15;101654.63;;;4.37;100.00
51452;BME280;37521;52.020;-1.740;2023-02-13T10:28:53;101643.31;;;4.43;100.00
51452;BME280;37521;52.020;-1.740;2023-02-13T10:31:44;101653.75;;;4.35;100.00
51452;BME280;37521;52.020;-1.740;2023-02-13T10:34:16;101644.09;;;4.22;100.00
51452;BME280;37521;52.020;-1.740;2023-02-13T10:36:46;101637.94;;;4.20;100.00
51452;BME280;37521;52.020;-1.740;2023-02-13T10:39:22;101645.00;;;4.30;100.00
51452;BME280;37521;52.020;-1.740;2023-02-13T10:41:52;101637.28;;;4.55;100.00
51452;BME280;37521;52.020;-1.740;2023-02-13T10:44:35;101642.69;;;5.02;100.00
51452;BME280;37521;52.020;-1.740;2023-02-13T10:47:15;101639.22;;;5.32;100.00
51452;BME280;37521;52.020;-1.740;2023-02-13T10:49:56;101635.75;;;5.52;100.00
51452;BME280;37521;52.020;-1.740;2023-02-13T10:52:36;101638.38;;;5.59;100.00
51452;BME280;37521;52.020;-1.740;2023-02-13T10:55:18;101631.41;;;5.63;100.00
51452;BME280;37521;52.020;-1.740;2023-02-13T10:58:01;101636.63;;;5.87;100.00
51452;BME280;37521;52.020;-1.740;2023-02-13T11:00:39;101636.63;;;6.01;100.00
51452;BME280;37521;52.020;-1.740;2023-02-13T11:03:17;101631.41;;;5.96;100.00
51452;BME280;37521;52.020;-1.740;2023-02-13T11:05:46;101629.66;;;6.05;100.00
51452;BME280;37521;52.020;-1.740;2023-02-13T11:08:17;101634.00;;;6.06;100.00
51452;BME280;37521;52.020;-1.740;2023-02-13T11:10:48;101639.28;;;5.69;100.00
51452;BME280;37521;52.020;-1.740;2023-02-13T11:13:18;101641.84;;;5.28;100.00
51452;BME280;37521;52.020;-1.740;2023-02-13T11:16:07;101644.44;;;5.11;100.00
51452;BME280;37521;52.020;-1.740;2023-02-13T11:18:38;101633.94;;;5.08;100.00
51452;BME280;37521;52.020;-1.740;2023-02-13T11:21:10;101634.00;;;5.41;100.00
51452;BME280;37521;52.020;-1.740;2023-02-13T11:23:43;101628.78;;;5.96;100.00
51452;BME280;37521;52.020;-1.740;2023-02-13T11:26:14;101635.78;;;5.97;100.00
51452;BME280;37521;52.020;-1.740;2023-02-13T11:28:49;101626.16;;;6.06;100.00
51452;BME280;37521;52.020;-1.740;2023-02-13T11:31:24;101616.53;;;6.05;100.00
51452;BME280;37521;52.020;-1.740;2023-02-13T11:33:53;101629.63;;;5.74;100.00
51452;BME280;37521;52.020;-1.740;2023-02-13T11:36:27;101626.16;;;5.70;100.00
51452;BME280;37521;52.020;-1.740;2023-02-13T11:38:58;101620.91;;;5.67;100.00
51452;BME280;37521;52.020;-1.740;2023-02-13T11:41:27;101623.53;;;5.44;100.00
51452;BME280;37521;52.020;-1.740;2023-02-13T11:43:57;101632.25;;;5.24;100.00
51452;BME280;37521;52.020;-1.740;2023-02-13T11:46:42;101629.59;;;5.04;100.00
51452;BME280;37521;52.020;-1.740;2023-02-13T11:49:17;101630.41;;;4.86;100.00
51452;BME280;37521;52.020;-1.740;2023-02-13T11:51:47;101625.13;;;4.72;100.00
51452;BME280;37521;52.020;-1.740;2023-02-13T11:54:26;101626.00;;;4.73;100.00
51452;BME280;37521;52.020;-1.740;2023-02-13T11:56:57;101619.03;;;4.79;100.00
51452;BME280;37521;52.020;-1.740;2023-02-13T11:59:37;101614.72;;;4.90;100.00
51452;BME280;37521;52.020;-1.740;2023-02-13T12:02:16;101612.16;;;5.21;100.00
51452;BME280;37521;52.020;-1.740;2023-02-13T12:04:46;101607.78;;;5.75;100.00
51452;BME280;37521;52.020;-1.740;2023-02-13T12:07:19;101610.44;;;5.54;100.00
51452;BME280;37521;52.020;-1.740;2023-02-13T12:09:52;101606.06;;;5.27;100.00
51452;BME280;37521;52.020;-1.740;2023-02-13T12:12:26;101610.41;;;5.17;100.00
51452;BME280;37521;52.020;-1.740;2023-02-13T12:14:56;101604.31;;;5.23;100.00
51452;BME280;37521;52.020;-1.740;2023-02-13T12:17:29;101599.09;;;5.36;100.00
51452;BME280;37521;52.020;-1.740;2023-02-13T12:19:59;101600.81;;;5.77;100.00
51452;BME280;37521;52.020;-1.740;2023-02-13T12:22:30;101585.09;;;5.71;100.00
51452;BME280;37521;52.020;-1.740;2023-02-13T12:25:26;101594.69;;;5.61;100.00
51452;BME280;37521;52.020;-1.740;2023-02-13T12:28:06;101590.34;;;5.65;100.00
51452;BME280;37521;52.020;-1.740;2023-02-13T12:34:04;101584.25;;;5.46;100.00
51452;BME280;37521;52.020;-1.740;2023-02-13T12:36:45;101594.72;;;5.66;100.00
51452;BME280;37521;52.020;-1.740;2023-02-13T12:39:20;101576.34;;;5.78;100.00
51452;BME280;37521;52.020;-1.740;2023-02-13T12:42:00;101579.84;;;5.77;100.00
51452;BME280;37521;52.020;-1.740;2023-02-13T12:44:51;101589.50;;;5.49;100.00
51452;BME280;37521;52.020;-1.740;2023-02-13T12:47:25;101580.75;;;5.53;100.00
51452;BME280;37521;52.020;-1.740;2023-02-13T12:50:25;101579.88;;;5.65;100.00
51452;BME280;37521;52.020;-1.740;2023-02-13T12:53:10;101568.50;;;5.77;100.00
51452;BME280;37521;52.020;-1.740;2023-02-13T12:56:17;101561.50;;;5.92;100.00
51452;BME280;37521;52.020;-1.740;2023-02-13T12:58:59;101562.34;;;6.10;100.00
51452;BME280;37521;52.020;-1.740;2023-02-13T13:01:45;101567.59;;;6.10;100.00
51452;BME280;37521;52.020;-1.740;2023-02-13T13:04:24;101562.34;;;5.87;100.00
51452;BME280;37521;52.020;-1.740;2023-02-13T13:07:15;101570.22;;;5.74;100.00
51452;BME280;37521;52.020;-1.740;2023-02-13T13:09:58;101565.00;;;5.84;100.00
51452;BME280;37521;52.020;-1.740;2023-02-13T13:12:33;101565.84;;;6.03;100.00
51452;BME280;37521;52.020;-1.740;2023-02-13T13:15:13;101558.81;;;6.17;100.00
51452;BME280;37521;52.020;-1.740;2023-02-13T13:17:56;101559.66;;;6.25;100.00
51452;BME280;37521;52.020;-1.740;2023-02-13T13:20:36;101551.84;;;6.16;100.00